Time;durP1;ratioP1;P1;durP2;ratioP2;P2;SDS_P1;SDS_P2;PMS_P1;PMS_P2;Temp;Humidity;BMP_temperature;BMP_pressure;BME280_temperature;BME280_humidity;BME280_pressure;Samples;Min_cycle;Max_cycle;Signal;HPM_P1;HPM_P2
2022/02/07 00:02:25;;;;;;;1999.90;999.90;;;;;;;1.15;100.00;98963.22;5033753;28;20060;-85
2022/02/07 00:04:58;;;;;;;1999.90;999.90;;;;;;;1.12;100.00;98973.63;5037457;28;20063;-85
2022/02/07 00:07:31;;;;;;;1999.90;999.90;;;;;;;1.14;100.00;98971.53;5031745;28;20045;-84
2022/02/07 00:10:06;;;;;;;1999.90;999.90;;;;;;;1.19;100.00;98982.28;5033232;28;20052;-84
2022/02/07 00:12:41;;;;;;;1999.90;999.90;;;;;;;1.18;100.00;98981.44;5032114;28;20064;-84
2022/02/07 00:15:17;;;;;;;1999.90;999.90;;;;;;;1.20;100.00;98983.88;5037210;28;20037;-84
2022/02/07 00:17:50;;;;;;;1999.90;999.90;;;;;;;1.15;100.00;99002.59;5030667;28;20056;-85
2022/02/07 00:20:21;;;;;;;1999.90;999.90;;;;;;;1.01;100.00;98997.69;5033466;28;20053;-85
2022/02/07 00:22:54;;;;;;;1999.90;999.90;;;;;;;1.05;100.00;99027.47;5030780;28;20053;-84
2022/02/07 00:25:28;;;;;;;1999.90;999.90;;;;;;;1.00;100.00;99040.81;5032868;28;20041;-84
2022/02/07 00:28:01;;;;;;;1999.90;999.90;;;;;;;0.97;100.00;99044.03;5033915;28;20421;-84
2022/02/07 00:30:36;;;;;;;1999.90;999.90;;;;;;;0.90;100.00;99052.25;5037602;28;20042;-84
2022/02/07 00:33:09;;;;;;;1999.90;999.90;;;;;;;0.91;100.00;99061.09;5033735;28;20052;-84
2022/02/07 00:35:37;;;;;;;1999.90;999.90;;;;;;;0.91;100.00;99056.56;5030128;28;20037;-85
2022/02/07 00:38:15;;;;;;;1999.90;999.90;;;;;;;0.80;100.00;99061.03;5031368;28;20060;-84
2022/02/07 00:43:39;;;;;;;1999.90;999.90;;;;;;;0.69;100.00;99086.06;5023221;28;20053;-84
2022/02/07 00:46:22;;;;;;;1999.90;999.90;;;;;;;0.72;100.00;99087.44;5031423;28;20050;-85
2022/02/07 00:48:55;;;;;;;1999.90;999.90;;;;;;;0.69;100.00;99094.09;5029948;28;20056;-84
2022/02/07 00:51:24;;;;;;;1999.90;999.90;;;;;;;0.82;100.00;99095.59;5033177;28;20072;-84
2022/02/07 00:53:58;;;;;;;1999.90;999.90;;;;;;;0.84;100.00;99106.84;5028363;28;20042;-84
2022/02/07 00:56:31;;;;;;;1999.90;999.90;;;;;;;0.82;100.00;99114.31;5031125;28;20056;-84
2022/02/07 00:59:05;;;;;;;1999.90;999.90;;;;;;;0.83;100.00;99106.03;5039333;28;20037;-85
2022/02/07 01:01:40;;;;;;;1999.90;999.90;;;;;;;0.78;100.00;99116.69;5033707;28;20082;-84
2022/02/07 01:04:14;;;;;;;1999.90;999.90;;;;;;;0.81;100.00;99124.22;5069597;28;20045;-84
2022/02/07 01:06:57;;;;;;;1999.90;999.90;;;;;;;0.73;100.00;99137.25;5027698;28;20056;-85
2022/02/07 01:09:40;;;;;;;1999.90;999.90;;;;;;;0.72;100.00;99133.78;5047424;28;20132;-84
2022/02/07 01:12:25;;;;;;;1999.90;999.90;;;;;;;0.67;100.00;99147.91;5036877;28;20057;-84
2022/02/07 01:15:23;;;;;;;1999.90;999.90;;;;;;;0.63;100.00;99167.41;5033423;28;20046;-84
2022/02/07 01:18:35;;;;;;;1999.90;999.90;;;;;;;0.67;100.00;99169.34;5049920;28;20513;-85
2022/02/07 01:47:46;;;;;;;1999.90;999.90;;;;;;;0.49;100.00;99258.00;5017458;28;20046;-84
2022/02/07 01:50:42;;;;;;;1999.90;999.90;;;;;;;0.48;100.00;99269.75;5034708;28;20053;-84
2022/02/07 01:53:28;;;;;;;1999.90;999.90;;;;;;;0.49;100.00;99276.75;5019338;28;20076;-84
2022/02/07 01:56:08;;;;;;;1999.90;999.90;;;;;;;0.50;100.00;99283.72;5026135;28;20057;-85
2022/02/07 01:58:45;;;;;;;1999.90;999.90;;;;;;;0.46;100.00;99285.28;5041613;28;20064;-85
2022/02/07 02:01:20;;;;;;;1999.90;999.90;;;;;;;0.36;100.00;99299.34;5034262;28;20057;-84
2022/02/07 02:03:53;;;;;;;1999.90;999.90;;;;;;;0.38;100.00;99299.09;5035215;28;20053;-84
2022/02/07 02:06:27;;;;;;;1999.90;999.90;;;;;;;0.32;100.00;99306.22;5018109;28;20049;-84
2022/02/07 02:09:06;;;;;;;1999.90;999.90;;;;;;;0.44;100.00;99303.44;5026264;28;20411;-84
2022/02/07 02:11:42;;;;;;;1999.90;999.90;;;;;;;0.33;100.00;99311.34;5022451;28;20041;-84
2022/02/07 02:14:34;;;;;;;1999.90;999.90;;;;;;;0.32;100.00;99317.75;5023886;28;20057;-84
2022/02/07 02:17:41;;;;;;;1999.90;999.90;;;;;;;0.38;100.00;99318.63;5029064;28;20054;-83
2022/02/07 02:37:27;;;;;;;1999.90;999.90;;;;;;;0.20;100.00;99364.38;5029912;28;20053;-85
2022/02/07 02:45:47;;;;;;;1999.90;999.90;;;;;;;0.02;100.00;99378.81;5050277;28;20060;-86
2022/02/07 02:48:29;;;;;;;1999.90;999.90;;;;;;;0.01;100.00;99395.91;5033395;28;20053;-84
2022/02/07 02:51:06;;;;;;;1999.90;999.90;;;;;;;0.01;100.00;99402.06;5037234;28;20046;-85
2022/02/07 02:53:36;;;;;;;1999.90;999.90;;;;;;;0.01;100.00;99409.28;5024119;28;20056;-85
2022/02/07 02:56:11;;;;;;;1999.90;999.90;;;;;;;0.10;100.00;99413.19;5031034;28;20493;-85
2022/02/07 02:58:50;;;;;;;1999.90;999.90;;;;;;;-0.08;100.00;99424.91;5030920;28;20053;-85
2022/02/07 03:01:28;;;;;;;1999.90;999.90;;;;;;;-0.14;100.00;99431.22;5031818;28;20069;-84
2022/02/07 03:04:07;;;;;;;1999.90;999.90;;;;;;;-0.06;100.00;99433.50;5031591;28;20501;-85
2022/02/07 03:06:43;;;;;;;1999.90;999.90;;;;;;;0.05;100.00;99442.50;5027725;28;20060;-84
2022/02/07 03:09:16;;;;;;;1999.90;999.90;;;;;;;-0.06;100.00;99452.22;5043978;28;20386;-85
2022/02/07 03:11:52;;;;;;;1999.90;999.90;;;;;;;-0.01;100.00;99457.66;5028613;28;20041;-84
2022/02/07 03:14:36;;;;;;;1999.90;999.90;;;;;;;0.05;100.00;99461.25;5019688;28;20152;-84
2022/02/07 03:17:10;;;;;;;1999.90;999.90;;;;;;;-0.07;100.00;99470.13;5032802;28;20060;-84
2022/02/07 03:19:44;;;;;;;1999.90;999.90;;;;;;;-0.09;100.00;99477.56;5033811;28;20056;-85
2022/02/07 03:22:17;;;;;;;1999.90;999.90;;;;;;;-0.14;100.00;99480.13;5034706;28;20411;-85
2022/02/07 03:24:50;;;;;;;1999.90;999.90;;;;;;;-0.16;100.00;99468.88;5042158;28;20057;-84
2022/02/07 03:27:32;;;;;;;1999.90;999.90;;;;;;;-0.09;100.00;99493.63;5032596;28;20052;-85
2022/02/07 03:30:07;;;;;;;1999.90;999.90;;;;;;;-0.10;100.00;99508.03;5031169;28;20061;-84
2022/02/07 03:32:48;;;;;;;1999.90;999.90;;;;;;;-0.04;100.00;99499.06;5045656;28;20061;-84
2022/02/07 03:35:18;;;;;;;1999.90;999.90;;;;;;;-0.10;100.00;99520.59;5041431;28;20520;-85
2022/02/07 03:37:53;;;;;;;1999.90;999.90;;;;;;;-0.11;100.00;99529.66;5036525;28;20049;-84
2022/02/07 03:40:28;;;;;;;1999.90;999.90;;;;;;;-0.11;100.00;99541.19;5040743;28;20054;-84
2022/02/07 03:43:04;;;;;;;1999.90;999.90;;;;;;;-0.20;100.00;99546.09;5029307;28;20050;-85
2022/02/07 03:45:38;;;;;;;1999.90;999.90;;;;;;;-0.15;100.00;99545.41;5046958;28;20049;-85
2022/02/07 03:48:16;;;;;;;1999.90;999.90;;;;;;;-0.04;100.00;99560.59;5031203;28;20057;-84
2022/02/07 03:50:50;;;;;;;1999.90;999.90;;;;;;;-0.01;100.00;99564.66;5041202;28;20049;-85
2022/02/07 03:53:25;;;;;;;1999.90;999.90;;;;;;;-0.02;100.00;99573.72;5041770;28;20387;-84
2022/02/07 03:56:05;;;;;;;1999.90;999.90;;;;;;;-0.07;100.00;99578.97;5036582;28;20041;-84
2022/02/07 03:58:43;;;;;;;1999.90;999.90;;;;;;;-0.04;100.00;99587.34;5025929;28;20045;-84
2022/02/07 04:01:22;;;;;;;1999.90;999.90;;;;;;;-0.02;100.00;99592.44;5037379;28;20489;-85
2022/02/07 04:03:56;;;;;;;1999.90;999.90;;;;;;;0.05;100.00;99606.50;5032660;28;20053;-85
2022/02/07 04:06:30;;;;;;;1999.90;999.90;;;;;;;0.07;100.00;99616.94;5064153;28;20124;-85
2022/02/07 04:09:36;;;;;;;1999.90;999.90;;;;;;;0.08;100.00;99616.72;5031783;28;20053;-84
2022/02/07 04:12:14;;;;;;;1999.90;999.90;;;;;;;0.12;100.00;99635.78;5032358;28;20046;-85
2022/02/07 04:15:06;;;;;;;1999.90;999.90;;;;;;;0.14;100.00;99641.72;5034531;28;20060;-84
2022/02/07 04:17:45;;;;;;;1999.90;999.90;;;;;;;0.22;100.00;99667.28;5036661;28;20044;-85
2022/02/07 04:20:18;;;;;;;1999.90;999.90;;;;;;;0.23;100.00;99675.06;5032774;28;20053;-85
2022/02/07 04:22:52;;;;;;;1999.90;999.90;;;;;;;0.27;100.00;99697.63;5031767;28;20057;-85
2022/02/07 04:25:34;;;;;;;1999.90;999.90;;;;;;;0.30;100.00;99699.88;5070259;28;20116;-84
2022/02/07 04:28:17;;;;;;;1999.90;999.90;;;;;;;0.45;100.00;99714.59;5050717;28;20044;-85
2022/02/07 04:30:52;;;;;;;1999.90;999.90;;;;;;;0.39;100.00;99721.72;5027227;28;20053;-84
2022/02/07 04:33:25;;;;;;;1999.90;999.90;;;;;;;0.36;100.00;99737.44;5033120;28;20425;-84
2022/02/07 04:35:59;;;;;;;1999.90;999.90;;;;;;;0.52;100.00;99743.91;5029072;28;20053;-85
2022/02/07 04:38:32;;;;;;;1999.90;999.90;;;;;;;0.55;100.00;99749.59;5037938;28;20045;-84
2022/02/07 04:41:04;;;;;;;1999.90;999.90;;;;;;;0.53;100.00;99756.28;5033173;28;20049;-85
2022/02/07 04:43:45;;;;;;;1999.90;999.90;;;;;;;0.49;100.00;99780.00;5021857;28;20053;-84
2022/02/07 04:46:34;;;;;;;1999.90;999.90;;;;;;;0.34;100.00;99769.78;5044699;28;20521;-85
2022/02/07 04:49:19;;;;;;;1999.90;999.90;;;;;;;0.52;100.00;99792.13;5024048;28;20406;-84
2022/02/07 04:52:00;;;;;;;1999.90;999.90;;;;;;;0.44;100.00;99777.22;5031051;28;20427;-84
2022/02/07 05:03:15;;;;;;;1999.90;999.90;;;;;;;0.58;100.00;99836.66;5022925;28;20442;-84
2022/02/07 05:14:38;;;;;;;1999.90;999.90;;;;;;;0.68;100.00;99847.63;4986613;28;20054;-84
2022/02/07 05:17:15;;;;;;;1999.90;999.90;;;;;;;0.69;100.00;99870.66;5019071;28;20529;-85
2022/02/07 05:20:11;;;;;;;1999.90;999.90;;;;;;;0.83;100.00;99872.06;5036945;28;20065;-85
2022/02/07 05:22:52;;;;;;;1999.90;999.90;;;;;;;0.82;100.00;99883.81;5032485;28;20457;-85
2022/02/07 05:26:01;;;;;;;1999.90;999.90;;;;;;;0.84;100.00;99887.06;5001363;28;20054;-84
2022/02/07 05:29:13;;;;;;;1999.90;999.90;;;;;;;0.72;100.00;99893.47;5024974;28;20073;-85
2022/02/07 05:32:21;;;;;;;1999.90;999.90;;;;;;;0.74;100.00;99912.81;5022345;28;20053;-85
2022/02/07 05:35:08;;;;;;;1999.90;999.90;;;;;;;0.73;100.00;99920.03;5031692;28;20053;-85
2022/02/07 05:37:56;;;;;;;1999.90;999.90;;;;;;;0.64;100.00;99929.47;5019626;28;20056;-85
2022/02/07 05:40:52;;;;;;;1999.90;999.90;;;;;;;0.64;100.00;99935.63;5024586;28;20064;-84
2022/02/07 05:43:37;;;;;;;1999.90;999.90;;;;;;;0.81;100.00;99938.41;5026973;28;20056;-84
2022/02/07 05:46:20;;;;;;;1999.90;999.90;;;;;;;0.80;100.00;99947.53;5026023;28;20052;-85
2022/02/07 05:49:07;;;;;;;1999.90;999.90;;;;;;;0.84;100.00;99950.53;5019566;28;20064;-85
2022/02/07 05:51:47;;;;;;;1999.90;999.90;;;;;;;0.84;100.00;99953.22;5041312;28;20481;-84
2022/02/07 05:54:39;;;;;;;1999.90;999.90;;;;;;;0.80;100.00;99958.25;5046399;28;20061;-84
2022/02/07 05:57:27;;;;;;;1999.90;999.90;;;;;;;0.77;100.00;99966.72;5028445;28;20049;-85
2022/02/07 06:00:38;;;;;;;1999.90;999.90;;;;;;;0.77;100.00;99965.91;4988607;28;20058;-85
2022/02/07 06:03:15;;;;;;;1999.90;999.90;;;;;;;0.80;100.00;99974.31;4977721;28;20065;-85
2022/02/07 06:05:58;;;;;;;1999.90;999.90;;;;;;;0.78;100.00;99980.94;5014124;28;20076;-85
2022/02/07 06:08:32;;;;;;;1999.90;999.90;;;;;;;0.79;100.00;99995.97;5026486;28;20503;-85
2022/02/07 06:11:12;;;;;;;1999.90;999.90;;;;;;;0.88;100.00;99994.56;5025984;28;20398;-85
2022/02/07 06:13:46;;;;;;;1999.90;999.90;;;;;;;0.90;100.00;99997.84;5029583;28;20044;-85
2022/02/07 06:16:19;;;;;;;1999.90;999.90;;;;;;;0.85;100.00;100006.56;5028452;28;20523;-85
2022/02/07 06:18:54;;;;;;;1999.90;999.90;;;;;;;0.92;100.00;100027.06;5032519;28;20053;-85
2022/02/07 06:21:32;;;;;;;1999.90;999.90;;;;;;;0.86;100.00;100028.81;5030930;28;20516;-84
2022/02/07 06:24:02;;;;;;;1999.90;999.90;;;;;;;0.85;100.00;100030.66;5033746;28;20045;-85
2022/02/07 06:26:37;;;;;;;1999.90;999.90;;;;;;;0.79;100.00;100028.91;5037746;28;20057;-85
2022/02/07 06:29:16;;;;;;;1999.90;999.90;;;;;;;0.85;100.00;100052.09;5022686;28;20552;-85
2022/02/07 06:31:51;;;;;;;1999.90;999.90;;;;;;;0.96;100.00;100041.63;5026933;28;20049;-85
2022/02/07 06:34:19;;;;;;;1999.90;999.90;;;;;;;0.93;100.00;100056.31;5035203;28;20041;-85
2022/02/07 06:36:54;;;;;;;1999.90;999.90;;;;;;;0.83;100.00;100053.41;5031727;28;20057;-85
2022/02/07 06:39:24;;;;;;;1999.90;999.90;;;;;;;0.99;100.00;100078.69;5032288;28;20049;-84
2022/02/07 06:41:59;;;;;;;1999.90;999.90;;;;;;;0.98;100.00;100082.41;5034723;28;20060;-85
2022/02/07 06:44:33;;;;;;;1999.90;999.90;;;;;;;1.02;100.00;100087.09;5021295;28;20505;-85
2022/02/07 06:47:08;;;;;;;1999.90;999.90;;;;;;;1.14;100.00;100094.31;5033811;28;20041;-84
2022/02/07 06:49:42;;;;;;;1999.90;999.90;;;;;;;1.15;100.00;100107.47;5049555;28;20037;-85
2022/02/07 06:52:15;;;;;;;1999.90;999.90;;;;;;;1.12;100.00;100109.78;5033255;28;20049;-85
2022/02/07 06:54:49;;;;;;;1999.90;999.90;;;;;;;1.17;100.00;100121.47;5039124;28;20084;-84
2022/02/07 06:57:24;;;;;;;1999.90;999.90;;;;;;;1.15;100.00;100128.91;5032192;28;20060;-84
2022/02/07 06:59:58;;;;;;;1999.90;999.90;;;;;;;1.08;100.00;100138.94;5030567;28;20053;-84
2022/02/07 07:02:32;;;;;;;1999.90;999.90;;;;;;;1.18;100.00;100154.44;5031846;28;20052;-85
2022/02/07 07:05:10;;;;;;;1999.90;999.90;;;;;;;1.33;100.00;100162.84;5022454;28;20073;-84
2022/02/07 07:07:48;;;;;;;1999.90;999.90;;;;;;;1.43;100.00;100173.00;5028146;28;20061;-85
2022/02/07 07:10:22;;;;;;;1999.90;999.90;;;;;;;1.47;100.00;100171.50;5035135;28;20045;-85
2022/02/07 07:13:08;;;;;;;1999.90;999.90;;;;;;;1.48;100.00;100180.38;5031528;28;20141;-85
2022/02/07 07:15:47;;;;;;;1999.90;999.90;;;;;;;1.61;100.00;100198.09;5037968;28;20481;-85
2022/02/07 07:18:22;;;;;;;1999.90;999.90;;;;;;;1.63;100.00;100204.03;5045821;28;20060;-84
2022/02/07 07:20:56;;;;;;;1999.90;999.90;;;;;;;1.62;100.00;100211.28;5035021;28;20045;-85
2022/02/07 07:23:31;;;;;;;1999.90;999.90;;;;;;;1.58;100.00;100210.09;5047943;28;20052;-84
2022/02/07 07:26:01;;;;;;;1999.90;999.90;;;;;;;1.65;100.00;100226.91;5029443;28;20049;-84
2022/02/07 07:28:39;;;;;;;1999.90;999.90;;;;;;;1.61;100.00;100227.59;5051887;28;20053;-84
2022/02/07 07:31:14;;;;;;;1999.90;999.90;;;;;;;1.59;100.00;100230.53;5031666;28;20061;-84
2022/02/07 07:33:53;;;;;;;1999.90;999.90;;;;;;;1.59;100.00;100241.25;5026670;28;20057;-84
2022/02/07 07:36:27;;;;;;;1999.90;999.90;;;;;;;1.46;100.00;100228.03;5034321;28;20052;-85
2022/02/07 07:39:00;;;;;;;1999.90;999.90;;;;;;;1.73;100.00;100246.38;5033214;28;20076;-85
2022/02/07 07:41:34;;;;;;;1999.90;999.90;;;;;;;1.71;100.00;100246.63;5023511;28;20414;-84
2022/02/07 07:44:13;;;;;;;1999.90;999.90;;;;;;;1.72;100.00;100248.25;5044942;28;20053;-86
2022/02/07 07:47:10;;;;;;;1999.90;999.90;;;;;;;1.75;100.00;100244.31;5046927;28;20068;-84
2022/02/07 07:50:10;;;;;;;1999.90;999.90;;;;;;;1.83;100.00;100260.06;5035953;28;20046;-85
2022/02/07 07:53:19;;;;;;;1999.90;999.90;;;;;;;1.81;100.00;100271.03;5009185;28;20061;-83
2022/02/07 08:01:59;;;;;;;1999.90;999.90;;;;;;;1.98;100.00;100281.88;5036829;28;20698;-85
2022/02/07 08:04:32;;;;;;;1999.90;999.90;;;;;;;2.00;100.00;100300.44;5045297;28;20053;-83
2022/02/07 08:07:13;;;;;;;1999.90;999.90;;;;;;;2.04;100.00;100297.06;5035490;28;20049;-84
2022/02/07 08:12:57;;;;;;;1999.90;999.90;;;;;;;2.08;100.00;100301.97;5012945;28;20061;-83
2022/02/07 08:15:30;;;;;;;1999.90;999.90;;;;;;;2.10;100.00;100322.16;5038805;28;20533;-84
2022/02/07 08:18:05;;;;;;;1999.90;999.90;;;;;;;2.14;100.00;100315.28;5021194;28;20060;-83
2022/02/07 08:20:33;;;;;;;1999.90;999.90;;;;;;;2.07;100.00;100327.16;5021185;28;20053;-84
2022/02/07 08:23:04;;;;;;;1999.90;999.90;;;;;;;2.13;100.00;100327.06;5023327;28;20052;-83
2022/02/07 08:25:38;;;;;;;1999.90;999.90;;;;;;;2.23;100.00;100350.63;5027086;28;20065;-85
2022/02/07 08:28:11;;;;;;;1999.90;999.90;;;;;;;2.25;100.00;100361.16;5011804;28;20053;-84
2022/02/07 08:30:44;;;;;;;1999.90;999.90;;;;;;;2.20;100.00;100359.97;5011175;28;20050;-86
2022/02/07 08:33:18;;;;;;;1999.90;999.90;;;;;;;2.22;100.00;100375.84;5004258;28;20049;-84
2022/02/07 08:35:52;;;;;;;1999.90;999.90;;;;;;;2.24;100.00;100386.34;5010098;28;20861;-84
2022/02/07 08:38:25;;;;;;;1999.90;999.90;;;;;;;2.22;100.00;100383.91;5010765;28;20058;-84
2022/02/07 08:40:58;;;;;;;1999.90;999.90;;;;;;;2.24;100.00;100391.72;5012053;28;20966;-85
2022/02/07 08:43:32;;;;;;;1999.90;999.90;;;;;;;2.30;100.00;100398.88;5007959;28;20524;-83
2022/02/07 08:46:00;;;;;;;1999.90;999.90;;;;;;;2.37;100.00;100411.13;5001324;28;20061;-85
2022/02/07 08:48:35;;;;;;;1999.90;999.90;;;;;;;2.50;100.00;100420.84;5006464;28;20081;-84
2022/02/07 08:51:08;;;;;;;1999.90;999.90;;;;;;;2.58;100.00;100443.03;4998958;28;20053;-83
2022/02/07 08:53:44;;;;;;;1999.90;999.90;;;;;;;2.59;100.00;100442.00;4997613;28;20066;-84
2022/02/07 08:56:13;;;;;;;1999.90;999.90;;;;;;;2.59;100.00;100450.84;5009946;28;20054;-84
2022/02/07 08:58:45;;;;;;;1999.90;999.90;;;;;;;2.70;100.00;100454.59;4998325;28;20516;-84
2022/02/07 09:01:18;;;;;;;1999.90;999.90;;;;;;;2.72;100.00;100468.63;5000964;28;20415;-85
2022/02/07 09:04:41;;;;;;;1999.90;999.90;;;;;;;2.70;100.00;100473.41;5009515;28;20532;-84
2022/02/07 09:07:15;;;;;;;1999.90;999.90;;;;;;;2.80;100.00;100478.22;4997981;28;20061;-85
2022/02/07 09:09:49;;;;;;;1999.90;999.90;;;;;;;2.89;100.00;100490.25;4997097;28;20817;-86
2022/02/07 09:12:22;;;;;;;1999.90;999.90;;;;;;;2.83;100.00;100494.69;4995718;28;20064;-83
2022/02/07 09:15:03;;;;;;;1999.90;999.90;;;;;;;2.42;100.00;100439.16;4999312;28;20053;-85
2022/02/07 09:17:36;;;;;;;1999.90;999.90;;;;;;;3.00;100.00;100510.13;5009353;28;20057;-87
2022/02/07 09:20:11;;;;;;;1999.90;999.90;;;;;;;3.00;100.00;100528.97;5007874;28;20250;-85
2022/02/07 09:22:39;;;;;;;1999.90;999.90;;;;;;;3.03;100.00;100526.59;5005583;28;20528;-83
2022/02/07 09:25:12;;;;;;;1999.90;999.90;;;;;;;3.08;100.00;100519.72;5000335;28;20057;-85
2022/02/07 09:27:41;;;;;;;1999.90;999.90;;;;;;;3.12;100.00;100537.84;5002304;28;20053;-85
2022/02/07 09:30:14;;;;;;;1999.90;999.90;;;;;;;3.25;100.00;100552.13;5005584;28;20061;-85
2022/02/07 09:32:43;;;;;;;1999.90;999.90;;;;;;;3.13;100.00;100555.59;5034536;28;20721;-84
2022/02/07 09:35:18;;;;;;;1999.90;999.90;;;;;;;3.11;100.00;100571.16;4993011;28;20088;-85
2022/02/07 09:37:52;;;;;;;1999.90;999.90;;;;;;;3.25;100.00;100579.81;5005941;28;20049;-85
2022/02/07 09:40:26;;;;;;;1999.90;999.90;;;;;;;3.23;100.00;100580.06;5008109;28;20054;-83
2022/02/07 09:43:00;;;;;;;1999.90;999.90;;;;;;;3.35;100.00;100598.06;5014614;28;20515;-85
2022/02/07 09:45:36;;;;;;;1968.65;999.90;;;;;;;3.33;100.00;100592.06;5010257;28;20228;-83
2022/02/07 09:48:09;;;;;;;1781.75;999.90;;;;;;;3.49;100.00;100606.72;5012308;28;20056;-84
2022/02/07 09:50:39;;;;;;;1665.32;999.90;;;;;;;3.64;100.00;100615.13;5011606;28;20072;-86
2022/02/07 09:53:13;;;;;;;1373.10;999.90;;;;;;;3.60;100.00;100605.06;5009559;28;20509;-83
2022/02/07 09:55:41;;;;;;;1504.03;999.90;;;;;;;3.74;100.00;100623.44;5009031;28;20053;-82
2022/02/07 09:58:15;;;;;;;1311.20;999.90;;;;;;;3.93;100.00;100628.66;5012661;28;20613;-83
2022/02/07 10:00:43;;;;;;;1303.90;999.90;;;;;;;4.00;100.00;100636.63;4997695;28;20045;-84
2022/02/07 10:03:21;;;;;;;1279.88;999.90;;;;;;;4.03;100.00;100647.75;5002537;28;20046;-83
2022/02/07 10:05:54;;;;;;;1310.50;999.90;;;;;;;4.03;100.00;100658.53;5006604;28;20057;-83
2022/02/07 10:08:45;;;;;;;1311.80;999.90;;;;;;;3.96;100.00;100654.31;5015307;28;20065;-84
2022/02/07 10:11:30;;;;;;;1180.07;999.90;;;;;;;3.94;100.00;100664.50;5002028;28;20442;-83
2022/02/07 10:14:09;;;;;;;1160.85;999.90;;;;;;;4.08;100.00;100672.06;5001120;28;20056;-82
2022/02/07 10:16:50;;;;;;;1230.90;999.90;;;;;;;4.10;100.00;100652.97;4996707;28;20049;-83
2022/02/07 10:19:34;;;;;;;1184.47;999.90;;;;;;;4.00;100.00;100663.56;5000643;28;20065;-82
2022/02/07 10:40:14;;;;;;;288.77;271.13;;;;;;;4.02;100.00;100691.88;5002625;28;20056;-81
2022/02/07 10:43:16;;;;;;;138.00;130.75;;;;;;;4.28;100.00;100695.13;4997686;28;20057;-82
2022/02/07 10:45:58;;;;;;;173.95;164.68;;;;;;;4.47;100.00;100701.16;5001741;28;20070;-82
2022/02/07 10:48:36;;;;;;;144.38;136.70;;;;;;;4.60;100.00;100717.06;5010821;28;20049;-82
2022/02/07 10:51:09;;;;;;;38.33;36.22;;;;;;;4.45;100.00;100718.63;5010458;28;20053;-83
2022/02/07 10:53:39;;;;;;;84.95;80.47;;;;;;;4.11;100.00;100742.69;5030117;28;20045;-82
2022/02/07 10:56:15;;;;;;;212.00;200.55;;;;;;;3.16;100.00;100758.69;5048073;28;20061;-81
2022/02/07 10:58:54;;;;;;;1241.45;999.90;;;;;;;2.63;100.00;100728.78;5030605;28;20410;-82
2022/02/07 11:01:39;;;;;;;1343.32;999.90;;;;;;;2.64;100.00;100735.00;5033295;28;20041;-81
2022/02/07 11:04:16;;;;;;;1486.07;999.90;;;;;;;2.72;100.00;100740.03;5058192;28;20418;-80
2022/02/07 11:06:52;;;;;;;1617.57;999.90;;;;;;;2.80;100.00;100728.97;5029544;28;20501;-80
2022/02/07 11:09:33;;;;;;;1548.20;999.90;;;;;;;2.83;100.00;100736.59;5058041;28;20054;-81
2022/02/07 11:12:21;;;;;;;1373.85;999.90;;;;;;;3.06;100.00;100751.97;5027666;28;20049;-82
2022/02/07 11:15:03;;;;;;;1298.70;999.90;;;;;;;3.23;100.00;100760.25;5022158;28;20057;-82
2022/02/07 11:18:05;;;;;;;1221.85;999.90;;;;;;;3.46;100.00;100747.09;5041248;28;20402;-80
2022/02/07 11:23:33;;;;;;;892.80;827.47;;;;;;;3.69;100.00;100773.22;5031649;28;20068;-81
2022/02/07 11:26:27;;;;;;;565.42;527.88;;;;;;;3.75;100.00;100772.28;5041444;28;20065;-81
2022/02/07 11:29:02;;;;;;;175.93;166.60;;;;;;;3.81;100.00;100782.16;5021752;28;20058;-81
2022/02/07 11:31:42;;;;;;;135.27;128.13;;;;;;;3.88;100.00;100769.38;5032303;28;20054;-82
2022/02/07 11:34:15;;;;;;;94.88;89.88;;;;;;;3.97;100.00;100780.63;5025775;28;20406;-81
2022/02/07 11:36:43;;;;;;;63.22;59.83;;;;;;;4.09;100.00;100788.72;5027439;28;20057;-82
2022/02/07 11:39:20;;;;;;;42.72;40.42;;;;;;;4.26;100.00;100795.03;5029748;28;20072;-81
2022/02/07 11:42:05;;;;;;;31.88;30.13;;;;;;;4.52;100.00;100806.38;5033730;28;20647;-80
2022/02/07 11:45:22;;;;;;;24.95;23.55;;;;;;;4.73;100.00;100807.63;5033524;28;20049;-81
2022/02/07 11:48:09;;;;;;;23.92;22.58;;;;;;;4.73;100.00;100810.31;5034009;28;20512;-80
2022/02/07 11:50:44;;;;;;;12.52;11.73;;;;;;;4.58;100.00;100836.97;5027849;28;20053;-80
2022/02/07 11:53:21;;;;;;;12.50;11.70;;;;;;;4.37;100.00;100841.06;5036281;28;20053;-81
2022/02/07 11:55:58;;;;;;;11.13;10.43;;;;;;;4.15;100.00;100840.84;5030258;28;20053;-82
2022/02/07 11:58:45;;;;;;;13.95;13.05;;;;;;;3.79;100.00;100846.16;5024269;28;20057;-80
2022/02/07 12:01:24;;;;;;;;;;;;;;;3.72;100.00;100851.63;5035382;28;20041;-81
2022/02/07 12:03:58;;;;;;;23.48;22.17;;;;;;;3.68;100.00;100863.09;5031930;28;19925;-81
2022/02/07 12:06:31;;;;;;;27.05;25.55;;;;;;;3.77;100.00;100866.28;5034044;28;20044;-81
2022/02/07 12:09:01;;;;;;;29.70;28.08;;;;;;;3.77;100.00;100877.03;5030981;28;20869;-80
2022/02/07 12:11:45;;;;;;;45.00;42.60;;;;;;;3.73;100.00;100872.13;5023705;28;20042;-80
2022/02/07 12:14:32;;;;;;;39.55;37.42;;;;;;;3.73;100.00;100874.00;5034851;28;20497;-80
2022/02/07 12:17:06;;;;;;;25.02;23.63;;;;;;;3.60;100.00;100866.91;5031107;28;20049;-79
2022/02/07 12:19:41;;;;;;;23.15;21.85;;;;;;;3.70;100.00;100877.13;5028101;28;20049;-85
2022/02/07 12:22:16;;;;;;;20.48;19.27;;;;;;;3.81;100.00;100887.13;5025468;28;20049;-80
2022/02/07 12:24:54;;;;;;;13.75;12.85;;;;;;;3.96;100.00;100880.50;5015951;28;20057;-80
2022/02/07 12:27:29;;;;;;;14.73;13.82;;;;;;;4.15;100.00;100876.66;5019706;28;20092;-80
2022/02/07 12:30:28;;;;;;;9.65;9.00;;;;;;;3.98;100.00;100873.81;5018342;28;20060;-80
2022/02/07 12:33:05;;;;;;;7.65;7.15;;;;;;;4.05;100.00;100893.38;5014837;28;20060;-81
2022/02/07 12:35:40;;;;;;;6.75;6.25;;;;;;;4.06;100.00;100899.59;5019120;28;20045;-81
2022/02/07 12:38:13;;;;;;;4.88;4.57;;;;;;;4.20;100.00;100901.03;5007257;28;20053;-80
2022/02/07 12:40:46;;;;;;;4.32;4.03;;;;;;;4.21;100.00;100902.69;4999908;28;20429;-80
2022/02/07 12:43:21;;;;;;;3.70;3.50;;;;;;;4.34;100.00;100901.63;5003640;28;20432;-80
2022/02/07 12:45:54;;;;;;;4.07;3.78;;;;;;;4.41;100.00;100918.50;5004962;28;20413;-80
2022/02/07 12:48:30;;;;;;;2.30;2.20;;;;;;;4.43;100.00;100902.09;5008982;28;20425;-80
2022/02/07 12:51:05;;;;;;;2.25;2.15;;;;;;;4.47;100.00;100905.97;5004235;28;20075;-80
2022/02/07 12:53:38;;;;;;;2.50;2.40;;;;;;;4.57;100.00;100913.47;4997226;28;20886;-81
2022/02/07 12:56:07;;;;;;;2.22;2.13;;;;;;;4.65;100.00;100913.13;4998164;28;20529;-80
2022/02/07 12:58:43;;;;;;;1.75;1.65;;;;;;;4.71;100.00;100919.44;4996208;28;20103;-80
2022/02/07 13:01:23;;;;;;;1.70;1.60;;;;;;;4.57;100.00;100922.41;5009867;28;20056;-81
2022/02/07 13:03:56;;;;;;;1.05;1.05;;;;;;;4.53;100.00;100929.31;5002730;28;20053;-81
2022/02/07 13:06:36;;;;;;;1.23;1.23;;;;;;;4.50;100.00;100919.00;5004307;28;20045;-80
2022/02/07 13:09:13;;;;;;;1.40;1.30;;;;;;;4.41;100.00;100915.00;4998297;28;20513;-82
2022/02/07 13:12:00;;;;;;;1.30;1.30;;;;;;;4.38;100.00;100916.28;5012118;28;20061;-81
2022/02/07 13:14:29;;;;;;;1.17;1.17;;;;;;;4.38;100.00;100928.94;5007783;28;20049;-82
2022/02/07 13:17:02;;;;;;;1.10;1.10;;;;;;;4.45;100.00;100929.66;5000177;28;20061;-82
2022/02/07 13:19:38;;;;;;;1.05;1.05;;;;;;;4.32;100.00;100916.38;4999557;28;20565;-80
2022/02/07 13:22:16;;;;;;;1.27;1.27;;;;;;;4.44;100.00;100928.00;4999318;28;20057;-82
2022/02/07 13:24:51;;;;;;;1.00;1.00;;;;;;;4.52;100.00;100957.31;5002133;28;20057;-80